createdAt,value
2022-12-27T00:01:29.415Z,9.85
2022-12-27T00:03:56.372Z,6.57
2022-12-27T00:06:24.359Z,5.78
2022-12-27T00:08:51.290Z,6.55
2022-12-27T00:11:19.996Z,6.85
2022-12-27T00:13:47.074Z,7.85
2022-12-27T00:16:16.709Z,7.50
2022-12-27T00:18:43.788Z,8.25
2022-12-27T00:21:11.685Z,7.93
2022-12-27T00:23:41.230Z,4.40
2022-12-27T00:26:17.173Z,7.68
2022-12-27T00:28:44.204Z,11.20
2022-12-27T00:31:11.222Z,8.23
2022-12-27T00:33:38.640Z,9.75
2022-12-27T00:36:06.914Z,9.82
2022-12-27T00:38:33.967Z,7.85
2022-12-27T00:41:01.021Z,7.40
2022-12-27T00:43:27.925Z,7.75
2022-12-27T00:45:54.890Z,9.63
2022-12-27T00:48:21.841Z,10.00
2022-12-27T00:50:48.766Z,7.75
2022-12-27T00:53:17.339Z,6.22
2022-12-27T00:55:44.223Z,8.40
2022-12-27T00:58:11.211Z,6.20
2022-12-27T01:00:38.077Z,5.70
2022-12-27T01:03:05.047Z,4.50
2022-12-27T01:05:31.888Z,10.07
2022-12-27T01:07:58.694Z,8.02
2022-12-27T01:10:25.696Z,6.90
2022-12-27T01:12:52.587Z,8.20
2022-12-27T01:15:19.519Z,6.55
2022-12-27T01:17:46.599Z,8.63
2022-12-27T01:20:13.516Z,5.93
2022-12-27T01:22:40.357Z,6.18
2022-12-27T01:25:07.629Z,6.93
2022-12-27T01:27:34.579Z,6.85
2022-12-27T01:30:01.513Z,7.03
2022-12-27T01:32:28.343Z,6.70
2022-12-27T01:34:55.228Z,4.57
2022-12-27T01:37:22.047Z,8.75
2022-12-27T01:39:48.869Z,7.95
2022-12-27T01:42:37.759Z,4.85
2022-12-27T01:45:26.719Z,4.18
2022-12-27T01:48:07.475Z,7.97
2022-12-27T01:50:35.830Z,7.13
2022-12-27T01:53:23.447Z,6.55
2022-12-27T01:56:11.856Z,10.25
2022-12-27T01:58:47.789Z,5.25
2022-12-27T02:01:21.779Z,9.65
2022-12-27T02:04:04.356Z,5.70
2022-12-27T02:06:31.554Z,8.82
2022-12-27T02:09:00.436Z,5.95
2022-12-27T02:11:48.568Z,6.80
2022-12-27T02:14:16.158Z,7.97
2022-12-27T02:16:42.975Z,7.65
2022-12-27T02:19:23.168Z,12.20
2022-12-27T02:22:11.801Z,6.30
2022-12-27T02:25:00.158Z,8.10
2022-12-27T02:27:48.694Z,6.82
2022-12-27T02:30:15.613Z,8.40
2022-12-27T02:32:54.179Z,7.03
2022-12-27T02:35:28.974Z,7.82
2022-12-27T02:38:03.034Z,8.13
2022-12-27T02:40:48.353Z,7.03
2022-12-27T02:43:33.675Z,8.00
2022-12-27T02:46:37.354Z,9.30
2022-12-27T02:49:22.836Z,12.35
2022-12-27T02:52:31.984Z,7.40
2022-12-27T02:55:16.125Z,8.43
2022-12-27T02:58:01.246Z,6.63
2022-12-27T03:00:46.763Z,7.68
2022-12-27T03:03:24.165Z,4.90
2022-12-27T03:06:32.988Z,7.63
2022-12-27T03:09:39.582Z,6.07
2022-12-27T03:12:45.050Z,7.28
2022-12-27T03:15:56.730Z,8.13
2022-12-27T03:18:32.774Z,9.32
2022-12-27T03:21:18.629Z,8.93
2022-12-27T03:24:04.471Z,8.38
2022-12-27T03:26:32.844Z,5.45
2022-12-27T03:29:19.026Z,8.68
2022-12-27T03:32:05.790Z,7.55
2022-12-27T03:34:39.951Z,7.85
2022-12-27T03:37:33.410Z,10.32
2022-12-27T03:40:31.095Z,9.27
2022-12-27T03:43:11.202Z,7.82
2022-12-27T03:46:35.753Z,6.38
2022-12-27T03:49:11.045Z,10.93
2022-12-27T03:52:06.375Z,10.38
2022-12-27T03:54:37.967Z,11.43
2022-12-27T03:57:06.826Z,8.30
2022-12-27T03:59:33.621Z,8.50
2022-12-27T04:02:00.705Z,7.05
2022-12-27T04:04:27.771Z,8.95
2022-12-27T04:06:54.673Z,5.38
2022-12-27T04:09:39.985Z,6.43
2022-12-27T04:12:25.477Z,8.20
2022-12-27T04:15:10.758Z,7.13
2022-12-27T04:17:56.285Z,4.97
2022-12-27T04:20:41.741Z,7.50
2022-12-27T04:23:27.534Z,6.90
2022-12-27T04:26:13.262Z,6.82
2022-12-27T04:29:00.353Z,8.68
2022-12-27T04:31:45.817Z,8.35
2022-12-27T04:34:31.057Z,6.00
2022-12-27T04:36:58.011Z,7.85
2022-12-27T04:39:24.918Z,7.40
2022-12-27T04:42:10.449Z,8.05
2022-12-27T04:44:55.985Z,8.68
2022-12-27T04:47:41.602Z,8.80
2022-12-27T04:50:48.954Z,6.30
2022-12-27T04:53:36.511Z,8.13
2022-12-27T04:56:03.678Z,6.90
2022-12-27T04:58:30.550Z,6.95
2022-12-27T05:01:18.074Z,6.97
2022-12-27T05:03:46.581Z,8.70
2022-12-27T05:06:13.585Z,6.82
2022-12-27T05:08:59.435Z,9.48
2022-12-27T05:11:44.805Z,6.68
2022-12-27T05:14:13.723Z,7.68
2022-12-27T05:16:42.026Z,6.28
2022-12-27T05:19:10.003Z,8.85
2022-12-27T05:21:37.733Z,5.38
2022-12-27T05:24:23.867Z,8.25
2022-12-27T05:26:50.686Z,7.45
2022-12-27T05:29:17.531Z,5.72
2022-12-27T05:31:44.418Z,7.40
2022-12-27T05:34:11.294Z,9.80
2022-12-27T05:36:38.123Z,7.28
2022-12-27T05:39:04.917Z,7.45
2022-12-27T05:41:31.791Z,9.90
2022-12-27T05:44:02.104Z,6.80
2022-12-27T05:46:33.612Z,7.72
2022-12-27T05:49:00.422Z,8.55
2022-12-27T05:51:27.375Z,7.15
2022-12-27T05:53:54.230Z,9.05
2022-12-27T05:56:21.890Z,7.15
2022-12-27T05:58:48.782Z,8.55
2022-12-27T06:01:16.711Z,5.40
2022-12-27T06:03:43.767Z,7.00
2022-12-27T06:06:10.826Z,10.50
2022-12-27T06:08:37.960Z,8.13
2022-12-27T06:11:11.447Z,8.43
2022-12-27T06:13:38.696Z,7.13
2022-12-27T06:16:06.729Z,6.28
2022-12-27T06:18:34.296Z,6.07
2022-12-27T06:21:06.253Z,7.75
2022-12-27T06:23:34.157Z,8.43
2022-12-27T06:26:07.705Z,6.10
2022-12-27T06:28:34.812Z,7.90
2022-12-27T06:31:02.119Z,8.43
2022-12-27T06:33:29.037Z,7.18
2022-12-27T06:35:56.064Z,8.30
2022-12-27T06:38:23.183Z,7.55
2022-12-27T06:40:50.060Z,6.95
2022-12-27T06:43:17.302Z,5.70
2022-12-27T06:45:44.201Z,7.03
2022-12-27T06:48:11.063Z,5.63
2022-12-27T06:50:37.930Z,7.30
2022-12-27T06:53:04.864Z,7.13
2022-12-27T06:55:31.639Z,6.20
2022-12-27T06:57:58.563Z,4.70
2022-12-27T07:00:25.425Z,8.23
2022-12-27T07:02:53.974Z,8.15
2022-12-27T07:05:20.840Z,8.90
2022-12-27T07:07:47.747Z,5.32
2022-12-27T07:10:14.601Z,8.18
2022-12-27T07:12:41.463Z,7.57
2022-12-27T07:15:09.314Z,7.05
2022-12-27T07:17:36.393Z,9.60
2022-12-27T07:20:04.419Z,8.95
2022-12-27T07:22:31.352Z,6.55
2022-12-27T07:24:58.259Z,7.68
2022-12-27T07:27:25.197Z,7.45
2022-12-27T07:29:52.137Z,7.70
2022-12-27T07:32:19.056Z,9.98
2022-12-27T07:34:45.944Z,9.80
2022-12-27T07:37:12.837Z,6.60
2022-12-27T07:39:39.684Z,11.02
2022-12-27T07:42:08.592Z,7.10
2022-12-27T07:44:37.714Z,7.32
2022-12-27T07:47:05.024Z,10.25
2022-12-27T07:49:31.907Z,7.63
2022-12-27T07:51:58.812Z,7.72
2022-12-27T07:54:25.655Z,9.05
2022-12-27T07:56:52.508Z,5.75
2022-12-27T07:59:19.512Z,8.25
2022-12-27T08:02:04.725Z,11.30
2022-12-27T08:04:34.239Z,9.30
2022-12-27T08:07:12.424Z,8.57
2022-12-27T08:09:39.665Z,8.27
2022-12-27T08:12:07.465Z,10.13
2022-12-27T08:14:34.311Z,7.68
2022-12-27T08:17:06.627Z,6.93
2022-12-27T08:19:33.687Z,6.50
2022-12-27T08:22:00.515Z,7.65
2022-12-27T08:24:27.385Z,6.55
2022-12-27T08:26:54.324Z,9.98
2022-12-27T08:29:21.187Z,8.63
2022-12-27T08:31:51.125Z,9.52
2022-12-27T08:34:18.280Z,7.07
2022-12-27T08:36:55.289Z,10.60
2022-12-27T08:39:22.987Z,9.38
2022-12-27T08:41:49.915Z,6.10
2022-12-27T08:44:16.739Z,8.00
2022-12-27T08:46:43.739Z,8.30
2022-12-27T08:49:10.629Z,9.07
2022-12-27T08:51:41.224Z,8.27
2022-12-27T08:54:08.883Z,10.13
2022-12-27T08:56:36.084Z,8.30
2022-12-27T08:59:03.303Z,6.63
2022-12-27T09:01:30.257Z,6.55
2022-12-27T09:03:57.223Z,7.95
2022-12-27T09:06:24.636Z,11.82
2022-12-27T09:08:52.072Z,10.48
2022-12-27T09:11:19.949Z,5.93
2022-12-27T09:13:46.978Z,10.35
2022-12-27T09:16:18.753Z,8.30
2022-12-27T09:18:47.844Z,11.35
2022-12-27T09:21:14.948Z,11.35
2022-12-27T09:23:41.842Z,10.32
2022-12-27T09:26:13.575Z,8.82
2022-12-27T09:28:40.501Z,8.00
2022-12-27T09:31:08.519Z,9.05
2022-12-27T09:33:35.409Z,11.73
2022-12-27T09:36:29.815Z,10.45
2022-12-27T09:38:57.344Z,6.63
2022-12-27T09:42:44.985Z,6.90
2022-12-27T09:44:58.264Z,9.75
2022-12-27T09:47:49.270Z,8.60
2022-12-27T09:50:25.772Z,7.65
2022-12-27T09:53:10.846Z,10.10
2022-12-27T09:55:43.361Z,6.43
2022-12-27T10:00:55.932Z,8.07
2022-12-27T10:03:25.356Z,8.07
2022-12-27T10:06:14.223Z,10.82
2022-12-27T10:08:56.398Z,11.80
2022-12-27T10:11:49.860Z,7.78
2022-12-27T10:14:20.793Z,8.00
2022-12-27T10:16:56.563Z,7.50
2022-12-27T10:19:43.703Z,9.55
2022-12-27T10:22:30.736Z,9.32
2022-12-27T10:24:59.143Z,8.75
2022-12-27T10:27:28.657Z,9.65
2022-12-27T10:29:59.380Z,9.38
2022-12-27T10:32:26.442Z,12.30
2022-12-27T10:34:59.981Z,11.23
2022-12-27T10:37:27.327Z,10.25
2022-12-27T10:39:54.150Z,9.35
2022-12-27T10:42:41.915Z,10.35
2022-12-27T10:45:47.689Z,9.88
2022-12-27T10:48:25.140Z,10.80
2022-12-27T10:51:00.398Z,11.02
2022-12-27T10:53:45.457Z,9.17
2022-12-27T10:56:32.521Z,6.65
2022-12-27T10:59:27.697Z,7.10
2022-12-27T11:02:00.860Z,8.43
2022-12-27T11:04:28.420Z,12.38
2022-12-27T11:07:04.035Z,10.85
2022-12-27T11:09:44.939Z,11.15
2022-12-27T11:12:24.222Z,11.73
2022-12-27T11:14:58.512Z,9.52
2022-12-27T11:17:45.271Z,9.05
2022-12-27T11:20:14.849Z,9.93
2022-12-27T11:22:54.747Z,9.25
2022-12-27T11:25:21.799Z,10.88
2022-12-27T11:27:54.713Z,12.27
2022-12-27T11:30:27.164Z,11.15
2022-12-27T11:32:54.132Z,10.48
2022-12-27T11:35:21.841Z,10.90
2022-12-27T11:37:49.241Z,9.60
2022-12-27T11:40:30.499Z,10.85
2022-12-27T11:43:04.304Z,10.00
2022-12-27T11:45:42.201Z,10.00
2022-12-27T11:48:25.012Z,15.30
2022-12-27T11:51:02.282Z,11.85
2022-12-27T11:53:55.844Z,12.73
2022-12-27T11:56:29.602Z,12.57
2022-12-27T11:59:21.608Z,11.65
2022-12-27T12:01:51.466Z,12.27
2022-12-27T12:04:36.499Z,16.05
2022-12-27T12:07:22.326Z,10.93
2022-12-27T12:09:54.306Z,13.10
2022-12-27T12:12:58.716Z,14.43
2022-12-27T12:15:55.950Z,13.57
2022-12-27T12:18:41.590Z,11.73
2022-12-27T12:21:34.766Z,12.52
2022-12-27T12:24:42.275Z,14.38
2022-12-27T12:27:27.884Z,10.07
2022-12-27T12:30:10.638Z,10.63
2022-12-27T12:32:37.535Z,10.75
2022-12-27T12:35:25.541Z,11.27
2022-12-27T12:38:31.907Z,7.35
2022-12-27T12:41:22.093Z,15.57
2022-12-27T12:43:56.899Z,13.40
2022-12-27T12:46:48.570Z,12.40
2022-12-27T12:49:30.264Z,8.63
2022-12-27T12:52:06.027Z,12.30
2022-12-27T12:54:37.137Z,13.25
2022-12-27T12:57:38.929Z,10.20
2022-12-27T13:00:29.148Z,11.93
2022-12-27T13:03:26.852Z,9.32
2022-12-27T13:06:16.925Z,11.40
2022-12-27T13:09:13.634Z,9.02
2022-12-27T13:11:58.684Z,10.85
2022-12-27T13:14:39.643Z,15.48
2022-12-27T13:17:19.673Z,13.68
2022-12-27T13:20:06.736Z,8.80
2022-12-27T13:23:01.708Z,9.20
2022-12-27T13:25:37.538Z,9.15
2022-12-27T13:28:30.172Z,13.07
2022-12-27T13:31:04.634Z,10.68
2022-12-27T13:34:05.336Z,11.48
2022-12-27T13:36:50.770Z,11.30
2022-12-27T13:39:48.028Z,10.88
2022-12-27T13:42:36.756Z,9.07
2022-12-27T13:45:09.454Z,12.70
2022-12-27T13:47:48.740Z,11.10
2022-12-27T13:51:01.815Z,11.25
2022-12-27T13:53:37.354Z,13.68
2022-12-27T13:56:53.497Z,9.05
2022-12-27T13:59:27.227Z,10.13
2022-12-27T14:02:12.923Z,13.60
2022-12-27T14:04:49.965Z,10.52
2022-12-27T14:07:45.661Z,13.25
2022-12-27T14:10:36.720Z,10.60
2022-12-27T14:13:07.572Z,11.75
2022-12-27T14:15:50.845Z,10.15
2022-12-27T14:18:26.781Z,10.27
2022-12-27T14:21:12.180Z,13.38
2022-12-27T14:24:02.690Z,11.95
2022-12-27T14:27:07.745Z,10.85
2022-12-27T14:30:08.290Z,10.35
2022-12-27T14:33:11.863Z,12.98
2022-12-27T14:36:02.761Z,10.73
2022-12-27T14:38:38.104Z,11.07
2022-12-27T14:41:26.849Z,10.93
2022-12-27T14:44:24.215Z,13.07
2022-12-27T14:47:19.806Z,12.75
2022-12-27T14:50:21.232Z,12.90
2022-12-27T14:53:06.564Z,10.55
2022-12-27T14:55:45.591Z,15.50
2022-12-27T14:58:50.390Z,15.20
2022-12-27T15:01:23.685Z,11.73
2022-12-27T15:03:54.535Z,10.48
2022-12-27T15:06:24.751Z,13.43
2022-12-27T15:09:07.172Z,15.93
2022-12-27T15:11:53.293Z,10.48
2022-12-27T15:14:33.328Z,13.07
2022-12-27T15:17:18.501Z,15.13
2022-12-27T15:20:11.317Z,11.38
2022-12-27T15:22:45.379Z,10.75
2022-12-27T15:25:31.805Z,11.85
2022-12-27T15:28:29.842Z,12.25
2022-12-27T15:31:10.385Z,10.25
2022-12-27T15:33:49.339Z,13.43
2022-12-27T15:36:17.446Z,11.90
2022-12-27T15:38:54.496Z,16.90
2022-12-27T15:41:57.748Z,12.75
2022-12-27T15:44:30.561Z,11.18
2022-12-27T15:47:12.640Z,10.70
2022-12-27T15:50:06.685Z,15.45
2022-12-27T15:52:42.552Z,12.27
2022-12-27T15:55:18.677Z,15.27
2022-12-27T15:58:07.684Z,10.35
2022-12-27T16:00:34.953Z,11.90
2022-12-27T16:03:03.180Z,13.85
2022-12-27T16:05:45.059Z,16.02
2022-12-27T16:08:23.895Z,12.90
2022-12-27T16:10:51.492Z,21.55
2022-12-27T16:13:44.321Z,13.10
2022-12-27T16:19:11.888Z,14.38
2022-12-27T16:21:41.561Z,15.88
2022-12-27T16:24:19.824Z,14.93
2022-12-27T16:27:06.940Z,10.25
2022-12-27T16:29:35.214Z,15.75
2022-12-27T16:32:22.796Z,13.00
2022-12-27T16:34:55.429Z,17.23
2022-12-27T16:37:30.765Z,11.73
2022-12-27T16:40:01.079Z,17.20
2022-12-27T16:42:40.838Z,12.23
2022-12-27T16:48:06.313Z,12.00
2022-12-27T16:50:41.365Z,12.15
2022-12-27T16:53:46.136Z,14.32
2022-12-27T16:56:23.100Z,18.02
2022-12-27T16:58:50.402Z,17.35
2022-12-27T17:01:26.707Z,15.15
2022-12-27T17:03:54.525Z,14.88
2022-12-27T17:06:31.995Z,13.23
2022-12-27T17:09:09.536Z,16.63
2022-12-27T17:12:05.551Z,17.38
2022-12-27T17:14:35.382Z,15.63
2022-12-27T17:17:23.387Z,18.65
2022-12-27T17:20:00.868Z,16.95
2022-12-27T17:22:34.188Z,15.48
2022-12-27T17:25:01.869Z,13.25
2022-12-27T17:27:51.104Z,15.88
2022-12-27T17:30:42.477Z,15.98
2022-12-27T17:33:39.995Z,13.25
2022-12-27T17:36:33.553Z,15.35
2022-12-27T17:39:18.241Z,12.00
2022-12-27T17:42:15.138Z,18.55
2022-12-27T17:44:52.639Z,14.05
2022-12-27T17:47:28.107Z,18.15
2022-12-27T17:50:04.509Z,13.25
2022-12-27T17:52:49.943Z,15.38
2022-12-27T17:55:43.605Z,15.95
2022-12-27T17:58:13.907Z,14.82
2022-12-27T18:00:50.267Z,10.07
2022-12-27T18:03:17.732Z,14.23
2022-12-27T18:05:45.015Z,13.73
2022-12-27T18:08:33.974Z,17.08
2022-12-27T18:11:01.656Z,11.98
2022-12-27T18:13:32.307Z,13.32
2022-12-27T18:16:10.309Z,14.30
2022-12-27T18:18:37.631Z,13.40
2022-12-27T18:21:05.697Z,13.77
2022-12-27T18:23:42.529Z,10.90
2022-12-27T18:26:13.886Z,11.75
2022-12-27T18:28:41.291Z,19.05
2022-12-27T18:31:26.282Z,11.05
2022-12-27T18:34:07.053Z,13.50
2022-12-27T18:36:33.857Z,10.82
2022-12-27T18:39:14.583Z,12.43
2022-12-27T18:41:50.340Z,12.35
2022-12-27T18:44:26.891Z,12.18
2022-12-27T18:46:56.459Z,10.50
2022-12-27T18:49:36.191Z,11.90
2022-12-27T18:52:15.509Z,11.13
2022-12-27T18:54:43.284Z,11.20
2022-12-27T18:57:32.590Z,8.05
2022-12-27T19:00:13.970Z,11.32
2022-12-27T19:02:42.987Z,7.65
2022-12-27T19:05:25.369Z,11.95
2022-12-27T19:08:11.437Z,9.80
2022-12-27T19:10:38.383Z,8.02
2022-12-27T19:13:05.217Z,7.68
2022-12-27T19:15:42.371Z,10.73
2022-12-27T19:18:29.711Z,10.70
2022-12-27T19:21:04.321Z,12.82
2022-12-27T19:23:35.912Z,7.82
2022-12-27T19:26:24.509Z,10.60
2022-12-27T19:29:08.491Z,11.23
2022-12-27T19:31:37.777Z,14.05
2022-12-27T19:34:10.105Z,10.50
2022-12-27T19:36:43.253Z,12.40
2022-12-27T19:39:30.507Z,11.15
2022-12-27T19:42:01.055Z,11.18
2022-12-27T19:44:29.023Z,10.80
2022-12-27T19:46:56.152Z,11.05
2022-12-27T19:49:41.986Z,10.85
2022-12-27T19:52:18.331Z,10.75
2022-12-27T19:54:46.160Z,9.07
2022-12-27T19:57:13.368Z,9.40
2022-12-27T19:59:40.303Z,9.05
2022-12-27T20:02:07.398Z,12.50
2022-12-27T20:04:34.427Z,13.65
2022-12-27T20:07:01.426Z,13.23
2022-12-27T20:09:28.327Z,9.77
2022-12-27T20:11:55.229Z,12.52
2022-12-27T20:14:22.858Z,12.85
2022-12-27T20:16:50.446Z,11.27
2022-12-27T20:19:18.357Z,9.63
2022-12-27T20:21:47.627Z,12.85
2022-12-27T20:24:14.625Z,11.32
2022-12-27T20:26:41.840Z,10.15
2022-12-27T20:29:09.140Z,13.82
2022-12-27T20:31:43.860Z,14.10
2022-12-27T20:34:11.900Z,11.52
2022-12-27T20:36:41.569Z,10.98
2022-12-27T20:39:08.488Z,12.52
2022-12-27T20:41:35.344Z,13.43
2022-12-27T20:44:02.290Z,7.22
2022-12-27T20:46:29.190Z,10.07
2022-12-27T20:48:56.346Z,7.63
2022-12-27T20:51:27.503Z,11.20
2022-12-27T20:53:58.696Z,8.10
2022-12-27T20:56:25.652Z,8.77
2022-12-27T20:58:52.601Z,7.75
2022-12-27T21:01:22.083Z,8.43
2022-12-27T21:03:49.327Z,10.38
2022-12-27T21:06:19.191Z,8.00
2022-12-27T21:08:50.604Z,7.22
2022-12-27T21:11:22.759Z,9.77
2022-12-27T21:13:49.678Z,10.70
2022-12-27T21:16:18.748Z,9.98
2022-12-27T21:18:45.846Z,9.57
2022-12-27T21:21:14.470Z,9.20
2022-12-27T21:23:43.350Z,10.90
2022-12-27T21:26:11.477Z,8.80
2022-12-27T21:28:38.408Z,8.85
2022-12-27T21:31:05.931Z,10.98
2022-12-27T21:33:33.332Z,9.73
2022-12-27T21:36:01.644Z,12.93
2022-12-27T21:38:28.687Z,13.57
2022-12-27T21:41:02.032Z,7.20
2022-12-27T21:43:29.154Z,8.38
2022-12-27T21:45:56.455Z,9.68
2022-12-27T21:48:23.596Z,11.23
2022-12-27T21:50:50.395Z,9.85
2022-12-27T21:53:20.463Z,8.85
2022-12-27T21:55:47.336Z,10.27
2022-12-27T21:58:14.227Z,9.40
2022-12-27T22:00:41.160Z,11.05
2022-12-27T22:03:08.159Z,8.25
2022-12-27T22:05:35.209Z,8.77
2022-12-27T22:08:02.076Z,7.43
2022-12-27T22:10:28.972Z,8.15
2022-12-27T22:12:55.849Z,9.55
2022-12-27T22:15:22.747Z,7.70
2022-12-27T22:17:49.644Z,6.88
2022-12-27T22:20:16.588Z,6.57
2022-12-27T22:22:43.446Z,7.90
2022-12-27T22:25:10.394Z,6.55
2022-12-27T22:27:37.896Z,6.10
2022-12-27T22:30:06.358Z,6.25
2022-12-27T22:32:33.234Z,7.88
2022-12-27T22:35:00.129Z,8.43
2022-12-27T22:37:26.935Z,5.55
2022-12-27T22:39:53.790Z,4.32
2022-12-27T22:42:20.641Z,3.30
2022-12-27T22:44:47.479Z,7.45
2022-12-27T22:47:29.605Z,6.40
2022-12-27T22:49:56.577Z,5.55
2022-12-27T22:52:23.482Z,6.45
2022-12-27T22:55:05.281Z,4.00
2022-12-27T22:57:34.175Z,3.85
2022-12-27T23:00:01.009Z,6.03
2022-12-27T23:02:27.941Z,5.65
2022-12-27T23:04:54.922Z,3.33
2022-12-27T23:08:04.990Z,2.70
2022-12-27T23:10:09.894Z,4.70
2022-12-27T23:12:36.720Z,4.25
2022-12-27T23:15:03.882Z,2.90
2022-12-27T23:17:30.778Z,5.40
2022-12-27T23:19:57.792Z,4.10
2022-12-27T23:22:24.705Z,3.47
2022-12-27T23:24:51.555Z,3.78
2022-12-27T23:27:18.496Z,3.15
2022-12-27T23:29:45.352Z,2.60
2022-12-27T23:32:12.199Z,3.55
2022-12-27T23:34:39.049Z,5.07
2022-12-27T23:37:05.917Z,4.18
2022-12-27T23:39:32.755Z,4.72
2022-12-27T23:41:59.642Z,5.07
2022-12-27T23:44:34.126Z,3.38
2022-12-27T23:47:05.751Z,5.30
2022-12-27T23:49:33.213Z,5.25
2022-12-27T23:52:00.072Z,4.03
2022-12-27T23:54:26.997Z,4.85
2022-12-27T23:56:53.868Z,3.40
2022-12-27T23:59:21.019Z,4.25
